createdAt,value
2018-11-23T00:01:21.046Z,55.35
2018-11-23T00:03:52.929Z,46.28
2018-11-23T00:06:23.891Z,49.30
2018-11-23T00:08:53.608Z,48.23
2018-11-23T00:11:24.776Z,47.88
2018-11-23T00:13:53.984Z,45.98
2018-11-23T00:16:28.856Z,53.50
2018-11-23T00:18:58.026Z,50.40
2018-11-23T00:21:32.810Z,49.65
2018-11-23T00:24:03.786Z,46.80
2018-11-23T00:26:38.605Z,50.05
2018-11-23T00:29:07.837Z,48.52
2018-11-23T00:31:38.999Z,50.25
2018-11-23T00:34:10.465Z,48.70
2018-11-23T00:36:43.242Z,47.53
2018-11-23T00:39:12.794Z,41.58
2018-11-23T00:41:43.734Z,47.90
2018-11-23T00:44:16.867Z,55.70
2018-11-23T00:46:49.744Z,43.52
2018-11-23T00:49:20.967Z,46.53
2018-11-23T00:51:56.116Z,54.70
2018-11-23T00:54:25.150Z,44.93
2018-11-23T00:56:58.113Z,48.58
2018-11-23T00:59:27.549Z,40.95
2018-11-23T01:02:03.616Z,38.90
2018-11-23T01:04:33.638Z,39.23
2018-11-23T01:07:09.061Z,40.10
2018-11-23T01:09:40.013Z,43.50
2018-11-23T01:12:15.246Z,43.35
2018-11-23T01:14:44.695Z,51.85
2018-11-23T01:17:15.802Z,42.27
2018-11-23T01:19:48.925Z,46.75
2018-11-23T01:22:21.944Z,47.05
2018-11-23T01:27:23.810Z,48.52
2018-11-23T01:32:23.678Z,47.43
2018-11-23T01:37:24.170Z,46.50
2018-11-23T01:42:23.598Z,42.38
2018-11-23T01:47:25.442Z,47.90
2018-11-23T01:49:54.707Z,39.45
2018-11-23T01:52:26.037Z,46.63
2018-11-23T01:57:25.650Z,40.10
2018-11-23T02:02:25.555Z,41.05
2018-11-23T02:07:25.181Z,45.55
2018-11-23T02:09:56.562Z,42.50
2018-11-23T02:12:24.678Z,36.95
2018-11-23T02:14:56.013Z,44.13
2018-11-23T02:17:30.988Z,46.48
2018-11-23T02:22:29.403Z,45.58
2018-11-23T02:27:33.282Z,48.38
2018-11-23T02:30:04.315Z,50.25
2018-11-23T02:32:35.950Z,49.13
2018-11-23T02:35:05.010Z,40.25
2018-11-23T02:37:37.794Z,45.60
2018-11-23T02:40:06.460Z,45.17
2018-11-23T02:42:39.534Z,43.68
2018-11-23T02:45:10.934Z,49.10
2018-11-23T02:47:44.378Z,50.50
2018-11-23T02:50:14.120Z,49.35
2018-11-23T02:52:46.078Z,45.50
2018-11-23T02:55:16.624Z,48.58
2018-11-23T02:57:47.876Z,46.63
2018-11-23T03:00:21.540Z,48.33
2018-11-23T03:02:52.765Z,43.73
2018-11-23T03:05:24.491Z,41.18
2018-11-23T03:07:57.089Z,40.85
2018-11-23T03:10:26.774Z,47.45
2018-11-23T03:12:59.477Z,44.20
2018-11-23T03:15:30.298Z,47.17
2018-11-23T03:18:01.618Z,52.83
2018-11-23T03:20:31.247Z,46.90
2018-11-23T03:23:03.981Z,45.78
2018-11-23T03:25:33.543Z,43.35
2018-11-23T03:28:04.498Z,49.95
2018-11-23T03:30:33.559Z,44.48
2018-11-23T03:33:06.543Z,40.90
2018-11-23T03:35:35.949Z,48.35
2018-11-23T03:38:07.185Z,54.33
2018-11-23T03:40:38.003Z,48.23
2018-11-23T03:43:09.441Z,51.65
2018-11-23T03:45:41.202Z,63.70
2018-11-23T03:48:12.281Z,51.42
2018-11-23T03:50:41.603Z,45.58
2018-11-23T03:53:13.043Z,46.20
2018-11-23T03:55:45.861Z,44.90
2018-11-23T03:58:18.293Z,52.58
2018-11-23T04:00:47.778Z,53.02
2018-11-23T04:03:20.581Z,48.60
2018-11-23T04:05:51.333Z,46.75
2018-11-23T04:08:24.573Z,45.25
2018-11-23T04:13:30.176Z,46.37
2018-11-23T04:16:01.048Z,47.80
2018-11-23T04:18:34.328Z,45.15
2018-11-23T04:21:03.993Z,46.10
2018-11-23T04:23:35.360Z,45.60
2018-11-23T04:26:04.260Z,43.58
2018-11-23T04:28:37.097Z,48.13
2018-11-23T04:31:08.366Z,47.50
2018-11-23T04:33:41.165Z,45.55
2018-11-23T04:36:12.336Z,48.63
2018-11-23T04:38:45.194Z,44.95
2018-11-23T04:41:14.348Z,44.03
2018-11-23T04:43:45.552Z,44.30
2018-11-23T04:46:15.003Z,45.28
2018-11-23T04:48:50.315Z,44.30
2018-11-23T04:53:54.593Z,47.38
2018-11-23T04:59:21.864Z,64.80
2018-11-23T05:01:50.714Z,78.35
2018-11-23T05:04:20.207Z,77.45
2018-11-23T05:06:49.748Z,65.32
2018-11-23T05:09:19.415Z,75.55
2018-11-23T05:11:50.227Z,80.80
2018-11-23T05:16:52.376Z,148.17
2018-11-23T05:19:25.560Z,80.97
2018-11-23T05:21:55.184Z,66.55
2018-11-23T05:24:24.852Z,76.82
2018-11-23T05:29:24.463Z,88.90
2018-11-23T05:31:53.994Z,89.70
2018-11-23T05:34:47.022Z,101.90
2018-11-23T05:37:16.159Z,100.67
2018-11-23T05:39:46.976Z,93.17
2018-11-23T05:42:18.325Z,92.60
2018-11-23T05:44:51.399Z,105.95
2018-11-23T05:49:57.785Z,191.37
2018-11-23T05:52:32.799Z,109.50
2018-11-23T05:55:03.328Z,90.22
2018-11-23T05:57:34.729Z,92.90
2018-11-23T06:00:08.252Z,127.75
2018-11-23T06:02:39.305Z,103.83
2018-11-23T06:05:12.135Z,86.32
2018-11-23T06:07:43.043Z,89.00
2018-11-23T06:10:16.972Z,86.53
2018-11-23T06:12:47.906Z,70.70
2018-11-23T06:15:22.368Z,80.40
2018-11-23T06:17:52.135Z,75.28
2018-11-23T06:20:27.186Z,65.60
2018-11-23T06:23:00.135Z,59.98
2018-11-23T06:25:44.130Z,66.85
2018-11-23T06:28:15.726Z,71.20
2018-11-23T06:33:15.549Z,81.22
2018-11-23T06:35:50.507Z,73.37
2018-11-23T06:38:21.737Z,70.60
2018-11-23T06:40:53.365Z,68.55
2018-11-23T06:43:25.880Z,75.80
2018-11-23T06:45:57.776Z,83.33
2018-11-23T06:48:31.458Z,93.05
2018-11-23T06:51:02.403Z,107.35
2018-11-23T06:53:47.016Z,103.35
2018-11-23T06:56:20.095Z,108.30
2018-11-23T06:58:53.966Z,90.20
2018-11-23T07:01:25.295Z,76.67
2018-11-23T07:03:56.934Z,78.80
2018-11-23T07:06:28.057Z,71.87
2018-11-23T07:09:03.676Z,70.32
2018-11-23T07:11:34.565Z,67.55
2018-11-23T07:17:00.446Z,73.57
2018-11-23T07:22:13.279Z,59.23
2018-11-23T07:27:35.378Z,55.48
2018-11-23T07:30:06.049Z,61.25
2018-11-23T07:32:38.650Z,51.13
2018-11-23T07:35:10.038Z,61.30
2018-11-23T07:37:39.355Z,54.23
2018-11-23T07:40:49.099Z,59.13
2018-11-23T07:43:22.231Z,61.83
2018-11-23T07:46:04.827Z,62.05
2018-11-23T07:54:29.042Z,54.03
2018-11-23T08:05:17.686Z,54.67
2018-11-23T08:07:52.171Z,49.03
2018-11-23T08:10:22.723Z,63.30
2018-11-23T08:12:55.665Z,58.08
2018-11-23T08:15:29.163Z,63.35
2018-11-23T08:17:58.852Z,68.42
2018-11-23T08:20:31.568Z,58.52
2018-11-23T08:23:04.845Z,44.67
2018-11-23T08:25:41.472Z,55.78
2018-11-23T08:31:08.105Z,50.10
2018-11-23T08:36:10.214Z,49.00
2018-11-23T08:41:25.060Z,43.65
2018-11-23T08:46:28.776Z,37.30
2018-11-23T08:48:57.878Z,29.25
2018-11-23T08:51:31.055Z,28.98
2018-11-23T08:53:59.804Z,34.60
2018-11-23T08:56:29.230Z,29.43
2018-11-23T08:58:58.666Z,25.13
2018-11-23T09:01:28.100Z,42.17
2018-11-23T09:03:57.571Z,55.20
2018-11-23T09:06:27.263Z,39.47
2018-11-23T09:11:25.714Z,45.63
2018-11-23T09:16:35.660Z,44.57
2018-11-23T09:19:05.596Z,48.30
2018-11-23T09:21:35.219Z,83.80
2018-11-23T09:29:22.800Z,166.33
2018-11-23T09:32:01.884Z,148.40
2018-11-23T09:34:33.303Z,89.58
2018-11-23T09:37:02.781Z,107.40
2018-11-23T09:39:32.197Z,35.00
2018-11-23T09:42:02.842Z,83.37
2018-11-23T09:44:32.029Z,38.33
2018-11-23T09:47:10.016Z,53.23
2018-11-23T09:49:38.343Z,29.77
2018-11-23T09:52:08.437Z,36.97
2018-11-23T09:54:43.808Z,31.77
2018-11-23T09:57:13.970Z,38.93
2018-11-23T09:59:46.998Z,35.70
2018-11-23T10:02:19.905Z,32.43
2018-11-23T10:04:48.686Z,32.13
2018-11-23T10:07:21.809Z,30.83
2018-11-23T10:09:52.500Z,33.03
2018-11-23T10:12:27.449Z,33.00
2018-11-23T10:17:32.251Z,32.10
2018-11-23T10:20:01.820Z,47.10
2018-11-23T10:22:31.988Z,37.97
2018-11-23T10:25:01.407Z,37.27
2018-11-23T10:27:31.749Z,38.03
2018-11-23T10:32:41.708Z,38.98
2018-11-23T10:37:48.958Z,40.70
2018-11-23T10:40:24.958Z,39.80
2018-11-23T10:45:32.946Z,47.33
2018-11-23T10:48:05.317Z,40.20
2018-11-23T10:50:42.604Z,40.15
2018-11-23T10:53:17.459Z,40.77
2018-11-23T10:55:51.068Z,36.57
2018-11-23T10:58:24.118Z,37.73
2018-11-23T11:01:16.460Z,41.00
2018-11-23T11:27:59.528Z,37.50
2018-11-23T11:39:19.464Z,35.47
2018-11-23T11:41:53.712Z,34.70
2018-11-23T11:47:16.462Z,41.80
2018-11-23T11:49:44.819Z,38.90
2018-11-23T11:52:13.159Z,32.57
2018-11-23T11:54:41.586Z,30.87
2018-11-23T11:57:10.040Z,32.27
2018-11-23T11:59:38.608Z,38.63
2018-11-23T12:02:10.259Z,36.63
2018-11-23T12:04:35.481Z,38.77
2018-11-23T12:07:03.908Z,38.17
2018-11-23T12:09:32.397Z,40.53
2018-11-23T12:12:00.883Z,28.03
2018-11-23T12:14:29.241Z,41.23
2018-11-23T12:16:57.511Z,35.53
2018-11-23T12:19:25.979Z,31.53
2018-11-23T12:21:54.307Z,30.10
2018-11-23T12:24:22.674Z,27.33
2018-11-23T12:26:51.216Z,32.60
2018-11-23T12:29:19.779Z,37.17
2018-11-23T12:31:48.263Z,34.70
2018-11-23T12:34:17.222Z,31.20
2018-11-23T12:36:45.651Z,32.73
2018-11-23T12:39:14.021Z,29.23
2018-11-23T12:41:42.311Z,31.27
2018-11-23T12:44:11.150Z,37.77
2018-11-23T12:46:40.457Z,45.13
2018-11-23T12:49:08.950Z,48.33
2018-11-23T12:51:37.347Z,38.20
2018-11-23T12:54:06.926Z,31.47
2018-11-23T12:56:35.449Z,31.30
2018-11-23T12:59:03.825Z,34.37
2018-11-23T13:01:32.269Z,40.97
2018-11-23T13:04:00.628Z,32.67
2018-11-23T13:06:31.610Z,32.37
2018-11-23T13:09:39.171Z,44.60
2018-11-23T13:12:07.391Z,36.37
2018-11-23T13:14:35.562Z,32.67
2018-11-23T13:17:03.799Z,41.40
2018-11-23T13:19:31.991Z,78.97
2018-11-23T13:22:00.271Z,58.73
2018-11-23T13:24:28.627Z,74.80
2018-11-23T13:26:56.852Z,76.90
2018-11-23T13:29:30.678Z,63.73
2018-11-23T13:31:58.931Z,34.83
2018-11-23T13:34:27.397Z,38.73
2018-11-23T13:36:55.631Z,38.30
2018-11-23T13:39:23.841Z,34.23
2018-11-23T13:41:52.015Z,40.57
2018-11-23T13:44:20.175Z,38.33
2018-11-23T13:46:48.359Z,39.10
2018-11-23T13:49:16.530Z,39.70
2018-11-23T13:51:44.740Z,35.60
2018-11-23T13:54:12.982Z,35.80
2018-11-23T13:56:41.217Z,38.23
2018-11-23T13:59:09.375Z,34.80
2018-11-23T14:01:37.610Z,33.77
2018-11-23T14:04:05.844Z,41.00
2018-11-23T14:06:34.064Z,34.50
2018-11-23T14:09:02.343Z,42.27
2018-11-23T14:11:30.535Z,40.83
2018-11-23T14:13:58.759Z,36.17
2018-11-23T14:16:26.950Z,36.30
2018-11-23T14:18:55.122Z,34.30
2018-11-23T14:21:23.323Z,36.60
2018-11-23T14:23:51.523Z,38.70
2018-11-23T14:26:19.714Z,37.50
2018-11-23T14:28:47.900Z,37.20
2018-11-23T14:31:16.082Z,36.90
2018-11-23T14:33:44.284Z,39.73
2018-11-23T14:36:13.003Z,39.00
2018-11-23T14:38:41.280Z,35.57
2018-11-23T14:41:09.472Z,35.63
2018-11-23T14:43:37.639Z,34.23
2018-11-23T14:46:05.807Z,33.17
2018-11-23T14:48:33.975Z,30.10
2018-11-23T14:51:02.750Z,26.30
2018-11-23T14:53:30.934Z,25.43
2018-11-23T14:55:59.092Z,24.20
2018-11-23T14:58:27.479Z,25.83
2018-11-23T15:00:55.703Z,22.47
2018-11-23T15:03:24.573Z,31.03
2018-11-23T15:05:52.759Z,27.23
2018-11-23T15:08:20.969Z,24.27
2018-11-23T15:10:49.143Z,32.37
2018-11-23T15:13:17.324Z,29.27
2018-11-23T15:15:45.474Z,29.17
2018-11-23T15:18:13.614Z,33.10
2018-11-23T15:20:43.460Z,26.00
2018-11-23T15:23:13.156Z,35.53
2018-11-23T15:25:41.360Z,26.90
2018-11-23T15:28:10.947Z,30.80
2018-11-23T15:30:39.963Z,28.13
2018-11-23T15:33:09.146Z,29.30
2018-11-23T15:35:37.990Z,28.87
2018-11-23T15:38:10.361Z,28.03
2018-11-23T15:40:36.039Z,27.93
2018-11-23T15:43:05.875Z,28.93
2018-11-23T15:45:35.038Z,28.00
2018-11-23T15:48:03.762Z,25.57
2018-11-23T15:50:33.427Z,21.93
2018-11-23T15:53:01.713Z,25.73
2018-11-23T15:55:39.005Z,26.37
2018-11-23T15:58:08.743Z,24.83
2018-11-23T16:00:39.073Z,26.13
2018-11-23T16:03:08.645Z,26.20
2018-11-23T16:05:37.077Z,27.50
2018-11-23T16:08:07.221Z,27.20
2018-11-23T16:10:36.572Z,28.93
2018-11-23T16:13:11.210Z,28.80
2018-11-23T16:15:35.224Z,43.67
2018-11-23T16:18:04.043Z,40.90
2018-11-23T16:20:34.372Z,46.10
2018-11-23T16:23:08.221Z,51.83
2018-11-23T16:25:36.642Z,40.88
2018-11-23T16:28:06.161Z,37.48
2018-11-23T16:30:36.603Z,36.07
2018-11-23T16:33:06.351Z,78.55
2018-11-23T16:35:35.812Z,71.82
2018-11-23T16:38:06.453Z,119.35
2018-11-23T16:40:36.048Z,28.35
2018-11-23T16:43:04.762Z,19.83
2018-11-23T16:45:34.255Z,29.85
2018-11-23T16:48:03.879Z,19.42
2018-11-23T16:50:32.296Z,18.62
2018-11-23T16:53:00.760Z,19.55
2018-11-23T16:55:29.245Z,26.68
2018-11-23T16:58:13.145Z,17.37
2018-11-23T17:00:42.872Z,17.95
2018-11-23T17:03:12.920Z,14.63
2018-11-23T17:05:43.721Z,17.25
2018-11-23T17:08:11.974Z,17.23
2018-11-23T17:10:40.311Z,16.30
2018-11-23T17:13:10.612Z,21.55
2018-11-23T17:15:38.827Z,17.92
2018-11-23T17:18:09.003Z,19.87
2018-11-23T17:20:37.749Z,17.95
2018-11-23T17:23:07.335Z,14.63
2018-11-23T17:25:35.675Z,18.30
2018-11-23T17:28:05.232Z,16.15
2018-11-23T17:30:34.221Z,16.52
2018-11-23T17:33:02.506Z,15.80
2018-11-23T17:35:31.009Z,18.98
2018-11-23T17:37:59.214Z,17.05
2018-11-23T17:40:30.008Z,20.65
2018-11-23T17:42:58.556Z,17.37
2018-11-23T17:45:28.703Z,20.35
2018-11-23T17:47:56.944Z,17.90
2018-11-23T17:50:26.467Z,15.95
2018-11-23T17:52:54.887Z,17.73
2018-11-23T17:55:23.101Z,17.52
2018-11-23T17:57:52.188Z,21.50
2018-11-23T18:00:24.625Z,18.95
2018-11-23T18:02:53.916Z,20.43
2018-11-23T18:05:23.037Z,21.95
2018-11-23T18:07:51.382Z,15.58
2018-11-23T18:10:22.004Z,17.80
2018-11-23T18:12:50.615Z,17.55
2018-11-23T18:15:21.112Z,16.50
2018-11-23T18:17:50.110Z,14.85
2018-11-23T18:20:19.412Z,15.40
2018-11-23T18:22:48.452Z,21.25
2018-11-23T18:25:18.152Z,19.52
2018-11-23T18:27:46.733Z,18.32
2018-11-23T18:30:14.945Z,16.52
2018-11-23T18:32:43.133Z,16.95
2018-11-23T18:35:13.347Z,17.50
2018-11-23T18:37:41.539Z,16.90
2018-11-23T18:40:12.149Z,14.58
2018-11-23T18:42:40.317Z,13.90
2018-11-23T18:45:09.724Z,15.85
2018-11-23T18:47:37.930Z,26.87
2018-11-23T18:50:08.757Z,18.32
2018-11-23T18:52:37.104Z,51.53
2018-11-23T18:55:05.472Z,23.12
2018-11-23T18:57:33.722Z,21.23
2018-11-23T19:00:01.868Z,36.48
2018-11-23T19:02:30.007Z,32.00
2018-11-23T19:04:58.152Z,23.32
2018-11-23T19:07:26.291Z,14.87
2018-11-23T19:09:54.442Z,17.67
2018-11-23T19:12:22.599Z,22.02
2018-11-23T19:14:50.730Z,21.93
2018-11-23T19:17:18.869Z,17.17
2018-11-23T19:19:47.010Z,23.55
2018-11-23T19:22:15.163Z,27.05
2018-11-23T19:24:43.320Z,16.97
2018-11-23T19:27:11.481Z,22.82
2018-11-23T19:29:39.741Z,16.62
2018-11-23T19:32:08.152Z,18.55
2018-11-23T19:34:38.615Z,17.07
2018-11-23T19:37:06.908Z,16.90
2018-11-23T19:39:35.081Z,20.55
2018-11-23T19:42:03.303Z,16.62
2018-11-23T19:44:31.476Z,20.57
2018-11-23T19:46:59.633Z,18.67
2018-11-23T19:49:27.836Z,20.02
2018-11-23T19:51:56.877Z,21.00
2018-11-23T19:54:25.161Z,20.40
2018-11-23T19:56:53.318Z,21.52
2018-11-23T19:59:21.499Z,18.07
2018-11-23T20:01:49.731Z,20.80
2018-11-23T20:04:17.892Z,24.85
2018-11-23T20:06:46.048Z,26.33
2018-11-23T20:09:14.424Z,30.57
2018-11-23T20:11:42.580Z,19.12
2018-11-23T20:14:10.727Z,17.48
2018-11-23T20:16:38.883Z,19.73
2018-11-23T20:19:07.050Z,21.02
2018-11-23T20:21:35.178Z,18.00
2018-11-23T20:24:03.336Z,20.10
2018-11-23T20:26:31.765Z,17.05
2018-11-23T20:28:59.912Z,21.37
2018-11-23T20:31:28.051Z,21.95
2018-11-23T20:33:56.194Z,18.05
2018-11-23T20:36:24.335Z,20.80
2018-11-23T20:38:52.571Z,19.50
2018-11-23T20:41:20.708Z,19.23
2018-11-23T20:43:48.869Z,21.70
2018-11-23T20:46:17.017Z,19.60
2018-11-23T20:48:45.142Z,21.62
2018-11-23T20:51:13.378Z,23.25
2018-11-23T20:53:41.567Z,20.32
2018-11-23T20:56:09.756Z,21.48
2018-11-23T20:58:37.900Z,22.02
2018-11-23T21:01:06.143Z,17.95
2018-11-23T21:03:34.277Z,24.10
2018-11-23T21:06:02.419Z,21.33
2018-11-23T21:08:30.546Z,19.70
2018-11-23T21:10:58.679Z,17.67
2018-11-23T21:13:26.818Z,28.30
2018-11-23T21:15:54.972Z,25.35
2018-11-23T21:18:23.115Z,20.57
2018-11-23T21:20:51.268Z,21.10
2018-11-23T21:23:19.402Z,20.48
2018-11-23T21:25:47.541Z,23.70
2018-11-23T21:28:15.670Z,22.17
2018-11-23T21:30:43.827Z,24.52
2018-11-23T21:33:11.991Z,25.45
2018-11-23T21:35:40.148Z,21.30
2018-11-23T21:38:08.305Z,23.10
2018-11-23T21:40:36.460Z,21.87
2018-11-23T21:43:04.582Z,24.27
2018-11-23T21:45:32.735Z,21.33
2018-11-23T21:48:00.948Z,25.68
2018-11-23T21:50:29.128Z,30.25
2018-11-23T21:52:57.759Z,22.13
2018-11-23T21:55:25.948Z,23.05
2018-11-23T21:57:55.231Z,21.20
2018-11-23T22:00:23.409Z,21.60
2018-11-23T22:02:51.559Z,21.25
2018-11-23T22:05:19.748Z,21.05
2018-11-23T22:07:47.907Z,20.57
2018-11-23T22:10:17.954Z,20.55
2018-11-23T22:12:46.125Z,19.98
2018-11-23T22:15:19.363Z,23.62
2018-11-23T22:17:47.814Z,20.75
2018-11-23T22:20:17.186Z,18.80
2018-11-23T22:22:45.314Z,20.43
2018-11-23T22:25:14.564Z,23.35
2018-11-23T22:27:42.866Z,21.15
2018-11-23T22:30:20.963Z,25.68
2018-11-23T22:32:49.113Z,20.70
2018-11-23T22:35:17.275Z,24.15
2018-11-23T22:37:45.428Z,22.35
2018-11-23T22:40:14.780Z,20.82
2018-11-23T22:42:45.195Z,22.30
2018-11-23T22:45:14.185Z,19.75
2018-11-23T22:47:42.336Z,22.27
2018-11-23T22:50:14.742Z,26.90
2018-11-23T22:52:42.899Z,24.02
2018-11-23T22:55:12.004Z,22.40
2018-11-23T22:57:40.177Z,25.62
2018-11-23T23:00:19.910Z,20.90
2018-11-23T23:02:48.527Z,24.05
2018-11-23T23:05:16.709Z,25.25
2018-11-23T23:07:44.877Z,23.70
2018-11-23T23:10:13.039Z,21.55
2018-11-23T23:12:41.236Z,23.00
2018-11-23T23:15:10.609Z,26.55
2018-11-23T23:17:38.875Z,21.80
2018-11-23T23:20:10.653Z,23.05
2018-11-23T23:22:38.922Z,24.25
2018-11-23T23:25:08.411Z,24.55
2018-11-23T23:27:36.669Z,26.15
2018-11-23T23:30:08.342Z,26.02
2018-11-23T23:32:36.583Z,25.10
2018-11-23T23:35:05.934Z,22.73
2018-11-23T23:37:34.108Z,35.45
2018-11-23T23:40:02.281Z,32.53
2018-11-23T23:42:30.480Z,24.02
2018-11-23T23:44:58.661Z,31.85
2018-11-23T23:47:26.812Z,25.52
2018-11-23T23:49:54.965Z,28.35
2018-11-23T23:52:23.116Z,25.00
2018-11-23T23:54:52.051Z,25.12
2018-11-23T23:57:20.417Z,26.77
2018-11-23T23:59:48.585Z,23.60
